createdAt,value
2023-04-11T00:00:24.917Z,30.10
2023-04-11T00:02:57.458Z,30.10
2023-04-11T00:05:31.984Z,30.10
2023-04-11T00:08:02.980Z,30.10
2023-04-11T00:10:34.121Z,30.20
2023-04-11T00:13:05.196Z,30.20
2023-04-11T00:15:36.481Z,30.20
2023-04-11T00:18:08.437Z,30.20
2023-04-11T00:20:39.610Z,30.30
2023-04-11T00:23:10.848Z,30.30
2023-04-11T00:25:42.724Z,30.30
2023-04-11T00:28:13.968Z,30.40
2023-04-11T00:30:45.441Z,30.30
2023-04-11T00:33:17.714Z,30.30
2023-04-11T00:35:48.717Z,30.40
2023-04-11T00:38:19.876Z,30.40
2023-04-11T00:40:50.847Z,30.40
2023-04-11T00:43:21.789Z,30.40
2023-04-11T00:45:53.549Z,30.30
2023-04-11T00:48:26.165Z,30.40
2023-04-11T00:50:57.842Z,30.40
2023-04-11T00:53:30.200Z,30.40
2023-04-11T00:56:04.225Z,30.40
2023-04-11T00:58:35.605Z,30.50
2023-04-11T01:01:08.265Z,30.50
2023-04-11T01:03:43.543Z,30.50
2023-04-11T01:06:16.224Z,30.60
2023-04-11T01:08:48.508Z,30.60
2023-04-11T01:11:21.294Z,30.70
2023-04-11T01:13:53.701Z,30.70
2023-04-11T01:16:24.719Z,30.80
2023-04-11T01:18:55.989Z,30.80
2023-04-11T01:21:28.164Z,30.90
2023-04-11T01:23:59.650Z,31.00
2023-04-11T01:26:30.969Z,31.00
2023-04-11T01:29:01.912Z,31.10
2023-04-11T01:31:33.916Z,31.10
2023-04-11T01:34:05.425Z,31.10
2023-04-11T01:36:37.801Z,31.20
2023-04-11T01:39:08.840Z,31.30
2023-04-11T01:41:40.919Z,31.30
2023-04-11T01:44:12.106Z,31.30
2023-04-11T01:46:43.174Z,31.30
2023-04-11T01:49:16.591Z,31.30
2023-04-11T01:51:47.589Z,31.40
2023-04-11T01:54:18.578Z,31.40
2023-04-11T01:56:49.845Z,31.40
2023-04-11T01:59:20.851Z,31.50
2023-04-11T02:01:51.876Z,31.50
2023-04-11T02:04:23.022Z,31.60
2023-04-11T02:06:54.283Z,31.60
2023-04-11T02:09:25.334Z,31.70
2023-04-11T02:11:58.194Z,31.80
2023-04-11T02:14:30.625Z,31.80
2023-04-11T02:17:01.676Z,31.90
2023-04-11T02:19:32.673Z,31.90
2023-04-11T02:22:03.604Z,32.00
2023-04-11T02:24:34.584Z,32.00
2023-04-11T02:27:05.888Z,32.10
2023-04-11T02:29:37.535Z,32.10
2023-04-11T02:32:08.717Z,32.30
2023-04-11T02:34:39.817Z,32.40
2023-04-11T02:37:11.317Z,32.40
2023-04-11T02:39:42.336Z,32.50
2023-04-11T02:42:14.695Z,32.60
2023-04-11T02:44:45.787Z,32.70
2023-04-11T02:47:16.940Z,32.70
2023-04-11T02:49:48.002Z,32.90
2023-04-11T02:52:20.289Z,32.90
2023-04-11T02:54:51.527Z,32.90
2023-04-11T02:57:22.539Z,32.90
2023-04-11T02:59:53.576Z,33.00
2023-04-11T03:02:26.103Z,33.10
2023-04-11T03:04:57.142Z,33.20
2023-04-11T03:07:28.300Z,33.30
2023-04-11T03:09:59.610Z,33.30
2023-04-11T03:12:30.569Z,33.40
2023-04-11T03:15:01.622Z,33.40
2023-04-11T03:17:32.643Z,33.50
2023-04-11T03:20:03.705Z,33.50
2023-04-11T03:22:34.755Z,33.50
2023-04-11T03:25:05.854Z,33.60
2023-04-11T03:27:36.827Z,33.70
2023-04-11T03:30:08.346Z,33.80
2023-04-11T03:32:39.700Z,33.90
2023-04-11T03:35:11.201Z,34.00
2023-04-11T03:37:42.241Z,34.10
2023-04-11T03:40:14.372Z,34.10
2023-04-11T03:42:45.818Z,34.20
2023-04-11T03:45:17.013Z,34.30
2023-04-11T03:47:48.028Z,34.40
2023-04-11T03:50:19.175Z,34.50
2023-04-11T03:52:50.383Z,34.50
2023-04-11T03:55:21.649Z,34.60
2023-04-11T03:57:52.914Z,34.70
2023-04-11T04:00:23.892Z,34.70
2023-04-11T04:02:55.105Z,34.80
2023-04-11T04:05:26.996Z,34.90
2023-04-11T04:07:58.011Z,34.90
2023-04-11T04:10:28.986Z,35.00
2023-04-11T04:13:00.307Z,35.10
2023-04-11T04:15:31.307Z,35.20
2023-04-11T04:18:02.293Z,35.30
2023-04-11T04:20:33.429Z,35.30
2023-04-11T04:23:05.736Z,35.30
2023-04-11T04:25:36.814Z,35.30
2023-04-11T04:28:07.981Z,35.40
2023-04-11T04:30:39.265Z,35.40
2023-04-11T04:33:11.636Z,35.50
2023-04-11T04:35:42.923Z,35.50
2023-04-11T04:38:15.254Z,35.60
2023-04-11T04:40:47.095Z,35.70
2023-04-11T04:43:21.737Z,35.80
2023-04-11T04:45:52.916Z,35.90
2023-04-11T04:48:25.352Z,35.90
2023-04-11T04:50:56.371Z,36.00
2023-04-11T04:53:27.425Z,36.00
2023-04-11T04:55:58.382Z,36.10
2023-04-11T04:58:29.479Z,36.20
2023-04-11T05:01:00.590Z,36.30
2023-04-11T05:03:33.199Z,36.30
2023-04-11T05:06:04.470Z,36.40
2023-04-11T05:08:35.504Z,36.40
2023-04-11T05:11:06.595Z,36.40
2023-04-11T05:13:37.620Z,36.50
2023-04-11T05:16:09.487Z,36.60
2023-04-11T05:18:40.488Z,36.60
2023-04-11T05:21:11.517Z,36.70
2023-04-11T05:23:42.877Z,36.70
2023-04-11T05:26:13.853Z,36.70
2023-04-11T05:28:44.853Z,36.70
2023-04-11T05:31:15.999Z,36.80
2023-04-11T05:33:47.243Z,36.80
2023-04-11T05:36:18.274Z,36.80
2023-04-11T05:38:49.830Z,36.80
2023-04-11T05:41:20.852Z,36.90
2023-04-11T05:43:52.109Z,37.00
2023-04-11T05:46:23.171Z,37.00
2023-04-11T05:48:54.399Z,37.10
2023-04-11T05:51:25.420Z,37.10
2023-04-11T05:53:56.653Z,37.10
2023-04-11T05:56:27.781Z,37.20
2023-04-11T05:58:59.092Z,37.20
2023-04-11T06:01:31.260Z,37.30
2023-04-11T06:04:02.680Z,37.20
2023-04-11T06:06:35.021Z,37.20
2023-04-11T06:09:06.256Z,37.30
2023-04-11T06:11:38.808Z,37.40
2023-04-11T06:14:09.760Z,37.40
2023-04-11T06:16:40.723Z,37.40
2023-04-11T06:19:11.745Z,37.40
2023-04-11T06:21:42.686Z,37.50
2023-04-11T06:24:14.060Z,37.50
2023-04-11T06:26:45.090Z,37.60
2023-04-11T06:29:16.410Z,37.60
2023-04-11T06:31:47.560Z,37.70
2023-04-11T06:34:18.574Z,37.70
2023-04-11T06:36:50.962Z,37.60
2023-04-11T06:39:22.200Z,37.60
2023-04-11T06:41:53.827Z,37.60
2023-04-11T06:44:24.911Z,37.50
2023-04-11T06:46:56.234Z,37.50
2023-04-11T06:49:27.483Z,37.50
2023-04-11T06:51:58.691Z,37.50
2023-04-11T06:54:29.668Z,37.50
2023-04-11T06:57:01.364Z,37.60
2023-04-11T06:59:32.514Z,37.70
2023-04-11T07:02:03.553Z,37.70
2023-04-11T07:04:35.042Z,37.70
2023-04-11T07:07:06.250Z,37.60
2023-04-11T07:09:37.276Z,37.60
2023-04-11T07:12:09.019Z,37.50
2023-04-11T07:14:40.067Z,37.50
2023-04-11T07:17:11.036Z,37.50
2023-04-11T07:19:42.049Z,37.50
2023-04-11T07:22:13.038Z,37.50
2023-04-11T07:24:44.839Z,37.50
2023-04-11T07:27:15.988Z,37.50
2023-04-11T07:29:46.978Z,37.50
2023-04-11T07:32:17.949Z,37.50
2023-04-11T07:34:48.938Z,37.50
2023-04-11T07:37:20.050Z,37.50
2023-04-11T07:39:51.062Z,37.60
2023-04-11T07:42:22.246Z,37.60
2023-04-11T07:44:54.604Z,37.60
2023-04-11T07:47:25.654Z,37.50
2023-04-11T07:49:56.641Z,37.50
2023-04-11T07:52:30.469Z,37.50
2023-04-11T07:55:01.507Z,37.60
2023-04-11T07:57:32.659Z,37.60
2023-04-11T08:00:05.365Z,37.60
2023-04-11T08:02:36.664Z,37.70
2023-04-11T08:05:09.798Z,37.70
2023-04-11T08:07:40.860Z,37.70
2023-04-11T08:10:12.391Z,37.70
2023-04-11T08:13:07.701Z,37.70
2023-04-11T08:15:40.000Z,37.70
2023-04-11T08:18:12.277Z,37.70
2023-04-11T08:20:43.604Z,37.70
2023-04-11T08:23:14.594Z,37.60
2023-04-11T08:25:45.586Z,37.70
2023-04-11T08:28:16.688Z,37.70
2023-04-11T08:30:47.792Z,37.70
2023-04-11T08:33:18.850Z,37.70
2023-04-11T08:35:49.895Z,37.60
2023-04-11T08:38:20.966Z,37.60
2023-04-11T08:40:51.931Z,37.70
2023-04-11T08:43:22.941Z,37.70
2023-04-11T08:45:54.166Z,37.60
2023-04-11T08:48:26.508Z,37.60
2023-04-11T08:50:57.460Z,37.60
2023-04-11T08:53:29.137Z,37.60
2023-04-11T08:56:01.138Z,37.60
2023-04-11T08:58:33.495Z,37.60
2023-04-11T09:01:29.893Z,37.60
2023-04-11T09:04:02.896Z,37.60
2023-04-11T09:06:34.893Z,37.60
2023-04-11T09:09:07.599Z,37.60
2023-04-11T09:11:57.808Z,37.50
2023-04-11T09:14:29.225Z,37.50
2023-04-11T09:17:05.505Z,37.50
2023-04-11T09:19:37.500Z,37.50
2023-04-11T09:22:09.100Z,37.50
2023-04-11T09:24:40.490Z,37.40
2023-04-11T09:27:16.964Z,37.40
2023-04-11T09:29:49.740Z,37.40
2023-04-11T09:32:37.039Z,37.30
2023-04-11T09:35:19.751Z,37.30
2023-04-11T09:37:58.042Z,37.30
2023-04-11T09:40:32.897Z,37.20
2023-04-11T09:43:05.956Z,37.20
2023-04-11T09:45:47.712Z,37.20
2023-04-11T09:48:10.488Z,37.20
2023-04-11T09:50:42.427Z,37.10
2023-04-11T09:53:13.901Z,37.10
2023-04-11T09:55:44.911Z,37.10
2023-04-11T09:58:16.691Z,37.10
2023-04-11T10:00:48.817Z,37.10
2023-04-11T10:03:21.580Z,37.10
2023-04-11T10:05:55.011Z,37.10
2023-04-11T10:08:35.225Z,37.10
2023-04-11T10:11:12.539Z,37.00
2023-04-11T10:13:47.589Z,37.00
2023-04-11T10:16:23.882Z,37.00
2023-04-11T10:19:01.359Z,37.00
2023-04-11T10:21:37.898Z,37.00
2023-04-11T10:24:17.520Z,36.90
2023-04-11T10:27:08.587Z,36.90
2023-04-11T10:29:51.692Z,36.90
2023-04-11T10:32:24.760Z,36.80
2023-04-11T10:34:58.841Z,36.80
2023-04-11T10:37:40.126Z,36.80
2023-04-11T10:40:11.941Z,36.80
2023-04-11T10:42:47.997Z,36.80
2023-04-11T10:45:20.313Z,36.70
2023-04-11T10:48:02.645Z,36.70
2023-04-11T10:50:37.215Z,36.70
2023-04-11T10:53:10.610Z,36.70
2023-04-11T10:55:49.614Z,36.60
2023-04-11T10:58:23.231Z,36.60
2023-04-11T11:01:21.157Z,36.60
2023-04-11T11:03:45.123Z,36.60
2023-04-11T11:06:16.943Z,36.50
2023-04-11T11:08:48.046Z,36.50
2023-04-11T11:11:20.517Z,36.40
2023-04-11T11:13:57.151Z,36.40
2023-04-11T11:16:29.373Z,36.40
2023-04-11T11:19:01.043Z,36.40
2023-04-11T11:21:35.300Z,36.30
2023-04-11T11:24:07.023Z,36.30
2023-04-11T11:26:47.509Z,36.30
2023-04-11T11:29:18.816Z,36.30
2023-04-11T11:31:50.155Z,36.20
2023-04-11T11:34:25.350Z,36.20
2023-04-11T11:36:57.882Z,36.20
2023-04-11T11:39:30.079Z,36.20
2023-04-11T11:42:01.365Z,36.10
2023-04-11T11:44:34.396Z,36.10
2023-04-11T11:47:18.808Z,36.10
2023-04-11T11:49:54.410Z,36.00
2023-04-11T11:52:36.110Z,36.00
2023-04-11T11:55:11.380Z,36.00
2023-04-11T11:57:47.314Z,35.90
2023-04-11T12:00:22.214Z,35.90
2023-04-11T12:02:55.232Z,35.90
2023-04-11T12:05:31.911Z,35.90
2023-04-11T12:08:05.489Z,35.80
2023-04-11T12:10:47.463Z,35.80
2023-04-11T12:13:23.590Z,35.80
2023-04-11T12:15:54.191Z,35.80
2023-04-11T12:18:26.415Z,35.70
2023-04-11T12:20:57.615Z,35.70
2023-04-11T12:23:28.604Z,35.70
2023-04-11T12:25:59.649Z,35.70
2023-04-11T12:28:30.619Z,35.70
2023-04-11T12:31:01.668Z,35.60
2023-04-11T12:33:32.736Z,35.60
2023-04-11T12:36:03.788Z,35.60
2023-04-11T12:38:35.335Z,35.60
2023-04-11T12:43:38.794Z,35.50
2023-04-11T12:44:22.929Z,35.60
2023-04-11T12:46:09.851Z,35.50
2023-04-11T12:48:40.833Z,35.50
2023-04-11T12:51:11.849Z,35.50
2023-04-11T12:53:43.054Z,35.50
2023-04-11T12:56:14.132Z,35.50
2023-04-11T12:58:46.041Z,35.40
2023-04-11T13:01:17.515Z,35.40
2023-04-11T13:03:48.662Z,35.40
2023-04-11T13:06:20.763Z,35.40
2023-04-11T13:08:51.848Z,35.40
2023-04-11T13:11:22.853Z,35.40
2023-04-11T13:13:54.937Z,35.30
2023-04-11T13:16:25.999Z,35.30
2023-04-11T13:18:57.174Z,35.20
2023-04-11T13:21:29.236Z,35.20
2023-04-11T13:24:00.207Z,35.20
2023-04-11T13:26:31.270Z,35.20
2023-04-11T13:29:02.440Z,35.20
2023-04-11T13:31:33.546Z,35.10
2023-04-11T13:34:04.712Z,35.10
2023-04-11T13:36:36.677Z,35.10
2023-04-11T13:39:08.059Z,35.10
2023-04-11T13:41:39.060Z,35.10
2023-04-11T13:44:29.010Z,35.10
2023-04-11T13:46:59.955Z,35.10
2023-04-11T13:49:30.976Z,35.00
2023-04-11T13:52:05.124Z,35.00
2023-04-11T13:54:36.590Z,35.00
2023-04-11T13:57:08.980Z,35.00
2023-04-11T13:59:40.038Z,35.00
2023-04-11T14:02:11.718Z,35.00
2023-04-11T14:04:42.945Z,35.00
2023-04-11T14:07:13.960Z,34.90
2023-04-11T14:09:45.007Z,34.80
2023-04-11T14:12:15.951Z,34.80
2023-04-11T14:14:46.928Z,34.80
2023-04-11T14:17:17.911Z,34.70
2023-04-11T14:19:48.865Z,34.70
2023-04-11T14:22:19.856Z,34.70
2023-04-11T14:24:50.817Z,34.80
2023-04-11T14:27:21.866Z,34.80
2023-04-11T14:29:53.440Z,34.70
2023-04-11T14:32:24.615Z,34.70
2023-04-11T14:34:55.580Z,34.70
2023-04-11T14:37:26.739Z,34.70
2023-04-11T14:39:57.880Z,34.60
2023-04-11T14:42:29.022Z,34.60
2023-04-11T14:44:59.998Z,34.50
2023-04-11T14:47:31.216Z,34.50
2023-04-11T14:50:02.672Z,34.50
2023-04-11T14:52:33.704Z,34.40
2023-04-11T14:55:04.680Z,34.40
2023-04-11T14:57:47.563Z,34.40
2023-04-11T15:00:21.066Z,34.40
2023-04-11T15:02:56.405Z,34.40
2023-04-11T15:05:27.912Z,34.40
2023-04-11T15:07:59.558Z,34.30
2023-04-11T15:10:30.616Z,34.40
2023-04-11T15:13:01.675Z,34.40
2023-04-11T15:15:33.155Z,34.30
2023-04-11T15:18:26.169Z,34.40
2023-04-11T15:21:01.021Z,34.30
2023-04-11T15:23:32.199Z,34.30
2023-04-11T15:26:07.368Z,34.20
2023-04-11T15:28:42.742Z,34.20
2023-04-11T15:31:15.638Z,34.20
2023-04-11T15:33:46.735Z,34.20
2023-04-11T15:36:18.796Z,34.20
2023-04-11T15:38:49.843Z,34.20
2023-04-11T15:41:20.836Z,34.20
2023-04-11T15:43:51.829Z,34.10
2023-04-11T15:46:22.885Z,34.20
2023-04-11T15:48:53.907Z,34.10
2023-04-11T15:51:25.912Z,34.20
2023-04-11T15:53:57.209Z,34.20
2023-04-11T15:56:29.440Z,34.10
2023-04-11T15:59:00.632Z,34.10
2023-04-11T16:01:32.192Z,34.00
2023-04-11T16:04:04.112Z,34.00
2023-04-11T16:06:35.335Z,34.00
2023-04-11T16:09:06.417Z,34.00
2023-04-11T16:11:38.800Z,34.00
2023-04-11T16:14:09.776Z,34.10
2023-04-11T16:16:40.848Z,34.00
2023-04-11T16:19:11.918Z,34.00
2023-04-11T16:21:44.031Z,34.00
2023-04-11T16:24:15.250Z,34.00
2023-04-11T16:26:46.944Z,33.90
2023-04-11T16:29:17.949Z,34.00
2023-04-11T16:31:49.007Z,33.90
2023-04-11T16:34:20.339Z,33.90
2023-04-11T16:36:52.481Z,33.90
2023-04-11T16:39:23.736Z,33.90
2023-04-11T16:41:56.026Z,33.90
2023-04-11T16:44:27.312Z,33.90
2023-04-11T16:46:58.432Z,33.80
2023-04-11T16:49:29.390Z,33.80
2023-04-11T16:52:00.456Z,33.80
2023-04-11T16:54:31.527Z,33.80
2023-04-11T16:57:02.750Z,33.80
2023-04-11T16:59:34.088Z,33.70
2023-04-11T17:02:05.334Z,33.70
2023-04-11T17:04:36.421Z,33.60
2023-04-11T17:07:07.295Z,33.60
2023-04-11T17:09:38.018Z,33.60
2023-04-11T17:12:09.195Z,33.60
2023-04-11T17:14:39.917Z,33.60
2023-04-11T17:17:10.808Z,33.50
2023-04-11T17:19:41.812Z,33.50
2023-04-11T17:22:13.987Z,33.50
2023-04-11T17:24:44.802Z,33.50
2023-04-11T17:27:15.513Z,33.50
2023-04-11T17:29:46.296Z,33.50
2023-04-11T17:32:17.229Z,33.40
2023-04-11T17:34:48.897Z,33.40
2023-04-11T17:37:19.851Z,33.40
2023-04-11T17:39:51.209Z,33.30
2023-04-11T17:42:22.148Z,33.30
2023-04-11T17:44:54.648Z,33.30
2023-04-11T17:47:25.471Z,33.30
2023-04-11T17:49:57.817Z,33.30
2023-04-11T17:52:28.781Z,33.20
2023-04-11T17:54:59.772Z,33.20
2023-04-11T17:57:31.911Z,33.20
2023-04-11T18:00:04.303Z,33.20
2023-04-11T18:02:38.309Z,33.10
2023-04-11T18:05:22.542Z,33.10
2023-04-11T18:07:42.993Z,33.10
2023-04-11T18:10:16.097Z,33.00
2023-04-11T18:12:48.568Z,33.00
2023-04-11T18:15:19.921Z,33.00
2023-04-11T18:17:50.940Z,33.00
2023-04-11T18:20:22.107Z,33.00
2023-04-11T18:22:55.682Z,33.00
2023-04-11T18:25:26.721Z,33.00
2023-04-11T18:27:57.673Z,33.00
2023-04-11T18:30:28.896Z,33.00
2023-04-11T18:33:00.104Z,32.90
2023-04-11T18:35:31.249Z,33.00
2023-04-11T18:38:02.383Z,32.90
2023-04-11T18:40:33.932Z,32.90
2023-04-11T18:43:05.256Z,32.80
2023-04-11T18:45:36.262Z,32.80
2023-04-11T18:48:07.434Z,32.80
2023-04-11T18:50:42.612Z,32.80
2023-04-11T18:53:14.192Z,32.70
2023-04-11T18:55:45.533Z,32.80
2023-04-11T18:58:18.614Z,32.70
2023-04-11T19:00:50.946Z,32.70
2023-04-11T19:03:22.422Z,32.70
2023-04-11T19:05:54.225Z,32.70
2023-04-11T19:08:25.621Z,32.70
2023-04-11T19:10:56.909Z,32.60
2023-04-11T19:13:27.912Z,32.60
2023-04-11T19:15:59.222Z,32.70
2023-04-11T19:18:30.175Z,32.60
2023-04-11T19:21:01.234Z,32.60
2023-04-11T19:23:32.281Z,32.60
2023-04-11T19:26:03.392Z,32.60
2023-04-11T19:28:34.445Z,32.60
2023-04-11T19:31:05.610Z,32.60
2023-04-11T19:33:37.134Z,32.50
2023-04-11T19:36:08.723Z,32.50
2023-04-11T19:38:40.880Z,32.50
2023-04-11T19:41:16.716Z,32.50
2023-04-11T19:43:49.609Z,32.40
2023-04-11T19:46:20.725Z,32.40
2023-04-11T19:48:52.604Z,32.40
2023-04-11T19:51:23.890Z,32.40
2023-04-11T19:53:55.264Z,32.40
2023-04-11T19:56:26.485Z,32.40
2023-04-11T19:58:57.717Z,32.40
2023-04-11T20:01:30.142Z,32.40
2023-04-11T20:04:01.842Z,32.40
2023-04-11T20:06:34.472Z,32.30
2023-04-11T20:09:05.482Z,32.30
2023-04-11T20:11:37.715Z,32.20
2023-04-11T20:14:09.090Z,32.20
2023-04-11T20:16:41.417Z,32.20
2023-04-11T20:19:12.570Z,32.10
2023-04-11T20:21:43.585Z,32.10
2023-04-11T20:24:14.558Z,32.10
2023-04-11T20:26:45.730Z,32.10
2023-04-11T20:29:18.249Z,32.10
2023-04-11T20:31:49.304Z,32.10
2023-04-11T20:34:20.282Z,32.10
2023-04-11T20:36:51.533Z,32.00
2023-04-11T20:39:22.692Z,32.00
2023-04-11T20:41:53.667Z,32.00
2023-04-11T20:44:26.856Z,32.00
2023-04-11T20:46:58.141Z,32.00
2023-04-11T20:49:29.486Z,31.90
2023-04-11T20:52:01.351Z,31.80
2023-04-11T20:54:32.611Z,31.80
2023-04-11T20:57:03.798Z,31.80
2023-04-11T20:59:35.405Z,31.80
2023-04-11T21:02:06.509Z,31.80
2023-04-11T21:04:37.759Z,31.80
2023-04-11T21:07:08.844Z,31.80
2023-04-11T21:09:39.912Z,31.80
2023-04-11T21:12:10.938Z,31.80
2023-04-11T21:14:42.455Z,31.80
2023-04-11T21:17:13.478Z,31.70
2023-04-11T21:19:44.467Z,31.70
2023-04-11T21:22:15.450Z,31.70
2023-04-11T21:24:46.446Z,31.70
2023-04-11T21:27:17.428Z,31.70
2023-04-11T21:29:48.410Z,31.70
2023-04-11T21:32:19.526Z,31.60
2023-04-11T21:34:50.591Z,31.60
2023-04-11T21:37:21.699Z,31.60
2023-04-11T21:39:52.680Z,31.60
2023-04-11T21:42:23.652Z,31.50
2023-04-11T21:44:55.229Z,31.60
2023-04-11T21:47:26.323Z,31.60
2023-04-11T21:49:57.296Z,31.50
2023-04-11T21:52:28.297Z,31.40
2023-04-11T21:54:59.314Z,31.40
2023-04-11T21:57:30.426Z,31.50
2023-04-11T22:00:01.757Z,31.40
2023-04-11T22:02:33.227Z,31.40
2023-04-11T22:05:06.943Z,31.40
2023-04-11T22:07:41.848Z,31.40
2023-04-11T22:10:13.173Z,31.40
2023-04-11T22:12:46.659Z,31.40
2023-04-11T22:15:19.151Z,31.40
2023-04-11T22:17:51.736Z,31.40
2023-04-11T22:20:22.773Z,31.40
2023-04-11T22:22:53.862Z,31.40
2023-04-11T22:25:26.082Z,31.30
2023-04-11T22:27:57.085Z,31.20
2023-04-11T22:30:28.716Z,31.20
2023-04-11T22:32:59.718Z,31.20
2023-04-11T22:35:31.309Z,31.20
2023-04-11T22:38:02.393Z,31.20
2023-04-11T22:40:33.459Z,31.20
2023-04-11T22:43:05.936Z,31.20
2023-04-11T22:45:40.306Z,31.20
2023-04-11T22:48:11.496Z,31.20
2023-04-11T22:50:42.787Z,31.10
2023-04-11T22:53:15.160Z,31.10
2023-04-11T22:55:46.114Z,31.10
2023-04-11T22:58:17.099Z,31.10
2023-04-11T23:00:48.928Z,31.00
2023-04-11T23:03:20.236Z,31.00
2023-04-11T23:05:51.311Z,31.00
2023-04-11T23:08:22.332Z,31.00
2023-04-11T23:10:53.293Z,31.00
2023-04-11T23:13:24.301Z,31.10
2023-04-11T23:15:56.132Z,31.00
2023-04-11T23:18:27.129Z,31.10
2023-04-11T23:20:59.268Z,31.00
2023-04-11T23:23:30.268Z,30.90
2023-04-11T23:26:01.268Z,30.90
2023-04-11T23:28:32.254Z,30.90
2023-04-11T23:31:03.294Z,30.90
2023-04-11T23:33:34.402Z,30.90
2023-04-11T23:36:05.530Z,30.90
2023-04-11T23:38:38.064Z,30.90
2023-04-11T23:41:09.407Z,30.90
2023-04-11T23:43:40.402Z,30.90
2023-04-11T23:46:11.397Z,30.90
2023-04-11T23:48:42.583Z,30.90
2023-04-11T23:51:13.570Z,30.90
2023-04-11T23:53:46.662Z,30.90
2023-04-11T23:56:17.886Z,30.90
2023-04-11T23:58:48.857Z,30.90
